KPHT/PHT METAR and TAF weather

Enter ICAO airport designator
Station Type Date Time Source
KPHT METAR 2021/09/24 03:35 UTC NOAA

KPHT 240335Z AUTO 00000KT 10SM FEW050 09/09 A3008 RMK A01


Station Type Date Time Source
KPHT Decoded METAR 2021/09/24 03:35 UTC NOAA

Station name not available
Sep 23, 2021 - 11:35 PM EDT / 2021.09.24 0335 UTC
Wind: Calm:0
Visibility: 10 mile(s):0
Sky conditions: mostly clear
Temperature: 48 F (9 C)
Dew Point: 48 F (9 C)
Relative Humidity: 100%
Pressure (altimeter): 30.08 in. Hg (1018 hPa)
ob: KPHT 240335Z AUTO 00000KT 10SM FEW050 09/09 A3008 RMK A01
cycle: 3

Station Type Date Time Source
KPHT TAF UTC NOAA

Error!

Example: see airport list